createdAt,value
2023-04-27T09:40:04.382Z,19.20
2023-04-27T09:42:31.710Z,19.30
2023-04-27T09:44:59.741Z,19.30
2023-04-27T09:47:28.685Z,19.30
2023-04-27T09:49:56.280Z,19.30
2023-04-27T09:52:23.217Z,19.20
2023-04-27T09:54:50.048Z,19.20
2023-04-27T09:57:32.645Z,19.20
2023-04-27T10:00:08.071Z,19.30
2023-04-27T10:02:53.269Z,19.30
2023-04-27T10:05:50.223Z,19.30
2023-04-27T10:08:18.050Z,19.30
2023-04-27T10:10:50.020Z,19.40
2023-04-27T10:13:27.207Z,19.50
2023-04-27T10:15:54.374Z,19.50
2023-04-27T10:18:31.381Z,19.50
2023-04-27T10:21:10.453Z,19.50
2023-04-27T10:23:50.641Z,19.50
2023-04-27T10:26:28.225Z,19.60
2023-04-27T10:28:59.436Z,19.60
2023-04-27T10:31:30.178Z,19.70
2023-04-27T10:34:10.696Z,19.70
2023-04-27T10:36:42.759Z,19.70
2023-04-27T10:39:29.848Z,19.70
2023-04-27T10:42:03.509Z,19.80
2023-04-27T10:44:32.168Z,19.80
2023-04-27T10:47:01.620Z,19.80
2023-04-27T10:49:29.562Z,19.90
2023-04-27T10:51:58.927Z,19.90
2023-04-27T10:54:29.594Z,20.00
2023-04-27T10:57:10.823Z,20.00
2023-04-27T10:59:55.520Z,20.10
2023-04-27T11:02:26.865Z,20.10
2023-04-27T11:04:54.611Z,20.00
2023-04-27T11:07:29.253Z,20.00
2023-04-27T11:09:56.170Z,20.20
2023-04-27T11:12:24.227Z,20.20
2023-04-27T11:14:51.135Z,20.30
2023-04-27T11:17:30.931Z,20.30
2023-04-27T11:19:58.010Z,20.30
2023-04-27T11:22:24.861Z,20.30
2023-04-27T11:24:52.754Z,20.30
2023-04-27T11:27:22.270Z,20.30
2023-04-27T11:29:51.509Z,20.40
2023-04-27T11:32:23.454Z,20.40
2023-04-27T11:34:53.745Z,20.40
2023-04-27T11:37:25.988Z,20.30
2023-04-27T11:40:00.039Z,20.40
2023-04-27T11:42:28.813Z,20.50
2023-04-27T11:45:01.204Z,20.60
2023-04-27T11:47:30.158Z,20.60
2023-04-27T11:49:59.669Z,20.70
2023-04-27T11:52:31.945Z,20.60
2023-04-27T11:55:00.375Z,20.60
2023-04-27T11:57:29.321Z,20.60
2023-04-27T11:59:57.659Z,20.60
2023-04-27T12:02:24.542Z,20.60
2023-04-27T12:04:51.786Z,20.70
2023-04-27T12:07:19.255Z,20.70
2023-04-27T12:09:46.195Z,20.70
2023-04-27T12:12:14.157Z,20.70
2023-04-27T12:14:43.752Z,20.70
2023-04-27T12:17:10.933Z,20.70
2023-04-27T12:19:37.954Z,20.70
2023-04-27T12:22:05.238Z,20.70
2023-04-27T12:24:32.410Z,20.80
2023-04-27T12:26:59.717Z,20.90
2023-04-27T12:29:26.802Z,21.00
2023-04-27T12:31:53.641Z,21.00
2023-04-27T12:34:23.156Z,21.10
2023-04-27T12:36:49.973Z,21.10
2023-04-27T12:39:19.835Z,21.10
2023-04-27T12:41:48.166Z,21.20
2023-04-27T12:44:16.108Z,21.10
2023-04-27T12:46:44.642Z,21.10
2023-04-27T12:49:14.535Z,21.10
2023-04-27T12:51:41.718Z,21.00
2023-04-27T12:54:12.723Z,21.00
2023-04-27T12:56:39.876Z,21.00
2023-04-27T12:59:06.828Z,21.10
2023-04-27T13:01:33.818Z,21.20
2023-04-27T13:04:03.083Z,21.20
2023-04-27T13:06:31.889Z,21.30
2023-04-27T13:08:59.463Z,21.40
2023-04-27T13:11:26.907Z,21.40
2023-04-27T13:13:55.038Z,21.40
2023-04-27T13:16:25.063Z,21.50
2023-04-27T13:18:53.225Z,21.60
2023-04-27T13:21:20.438Z,21.60
2023-04-27T13:23:47.948Z,21.70
2023-04-27T13:26:15.824Z,21.70
2023-04-27T13:28:42.959Z,21.70
2023-04-27T13:31:10.092Z,21.70
2023-04-27T13:33:44.660Z,21.70
2023-04-27T13:36:12.631Z,21.80
2023-04-27T13:38:39.830Z,21.80
2023-04-27T13:41:06.887Z,21.90
2023-04-27T13:43:33.855Z,21.90
2023-04-27T13:46:01.828Z,21.80
2023-04-27T13:48:29.209Z,21.80
2023-04-27T13:50:56.358Z,21.80
2023-04-27T13:53:26.979Z,21.80
2023-04-27T13:55:58.161Z,21.70
2023-04-27T13:58:27.040Z,21.60
2023-04-27T14:00:54.611Z,21.60
2023-04-27T14:03:22.815Z,21.50
2023-04-27T14:05:51.378Z,21.50
2023-04-27T14:08:19.159Z,21.50
2023-04-27T14:10:46.437Z,21.50
2023-04-27T14:13:13.535Z,21.50
2023-04-27T14:15:41.227Z,21.60
2023-04-27T14:18:09.246Z,21.50
2023-04-27T14:20:37.363Z,21.50
2023-04-27T14:23:05.932Z,21.50
2023-04-27T14:25:34.471Z,21.50
2023-04-27T14:28:04.031Z,21.50
2023-04-27T14:30:34.872Z,21.50
2023-04-27T14:33:02.605Z,21.50
2023-04-27T14:35:29.837Z,21.60
2023-04-27T14:38:01.833Z,21.60
2023-04-27T14:40:32.833Z,21.60
2023-04-27T14:42:59.866Z,21.60
2023-04-27T14:45:33.565Z,21.70
2023-04-27T14:48:03.934Z,21.60
2023-04-27T14:50:31.041Z,21.50
2023-04-27T14:52:58.865Z,21.50
2023-04-27T14:55:25.992Z,21.50
2023-04-27T14:57:52.885Z,21.60
2023-04-27T15:00:19.882Z,21.60
2023-04-27T15:02:46.956Z,21.70
2023-04-27T15:05:13.869Z,21.60
2023-04-27T15:07:40.887Z,21.60
2023-04-27T15:10:08.270Z,21.50
2023-04-27T15:12:35.129Z,21.50
2023-04-27T15:15:02.032Z,21.60
2023-04-27T15:17:29.593Z,21.70
2023-04-27T15:19:56.507Z,21.60
2023-04-27T15:22:23.765Z,21.60
2023-04-27T15:24:50.924Z,21.60
2023-04-27T15:27:17.720Z,21.60
2023-04-27T15:29:44.659Z,21.50
2023-04-27T15:32:11.692Z,21.50
2023-04-27T15:34:38.740Z,21.40
2023-04-27T15:37:05.573Z,21.40
2023-04-27T15:39:32.499Z,21.30
2023-04-27T15:41:59.816Z,21.30
2023-04-27T15:44:27.040Z,21.30
2023-04-27T15:46:53.928Z,21.40
2023-04-27T15:49:21.578Z,21.40
2023-04-27T15:51:49.185Z,21.50
2023-04-27T15:54:17.751Z,21.50
2023-04-27T15:56:47.204Z,21.50
2023-04-27T15:59:14.253Z,21.50
2023-04-27T16:01:41.281Z,21.50
2023-04-27T16:04:08.342Z,21.50
2023-04-27T16:06:36.405Z,21.40
2023-04-27T16:09:04.001Z,21.30
2023-04-27T16:11:33.890Z,21.30
2023-04-27T16:14:00.905Z,21.30
2023-04-27T16:16:27.678Z,21.30
2023-04-27T16:18:58.815Z,21.30
2023-04-27T16:21:25.878Z,21.30
2023-04-27T16:23:53.192Z,21.30
2023-04-27T16:26:19.975Z,21.30
2023-04-27T16:28:46.737Z,21.20
2023-04-27T16:31:16.658Z,21.10
2023-04-27T16:33:43.542Z,21.10
2023-04-27T16:36:10.936Z,21.10
2023-04-27T16:38:39.300Z,21.10
2023-04-27T16:41:06.365Z,21.00
2023-04-27T16:43:33.881Z,21.00
2023-04-27T16:46:03.669Z,21.00
2023-04-27T16:48:30.653Z,21.00
2023-04-27T16:51:00.300Z,21.00
2023-04-27T16:53:27.095Z,21.00
2023-04-27T16:55:53.914Z,21.00
2023-04-27T16:58:20.807Z,20.90
2023-04-27T17:00:47.561Z,21.00
2023-04-27T17:03:14.660Z,20.90
2023-04-27T17:05:41.836Z,20.90
2023-04-27T17:08:08.837Z,20.90
2023-04-27T17:10:36.743Z,20.80
2023-04-27T17:13:07.782Z,20.70
2023-04-27T17:15:34.622Z,20.70
2023-04-27T17:18:08.065Z,20.80
2023-04-27T17:20:34.969Z,20.70
2023-04-27T17:23:04.384Z,20.60
2023-04-27T17:25:31.214Z,20.60
2023-04-27T17:28:00.777Z,20.50
2023-04-27T17:30:28.248Z,20.60
2023-04-27T17:32:55.056Z,20.60
2023-04-27T17:35:22.043Z,20.60
2023-04-27T17:37:48.913Z,20.60
2023-04-27T17:40:20.532Z,20.50
2023-04-27T17:42:47.670Z,20.40
2023-04-27T17:45:14.681Z,20.30
2023-04-27T17:47:42.016Z,20.30
2023-04-27T17:50:09.574Z,20.20
2023-04-27T17:52:36.386Z,20.20
2023-04-27T17:55:03.474Z,20.00
2023-04-27T17:57:30.341Z,20.00
2023-04-27T17:59:57.218Z,19.90
2023-04-27T18:02:24.184Z,19.80
2023-04-27T18:04:51.372Z,19.80
2023-04-27T18:07:19.336Z,19.70
2023-04-27T18:09:46.152Z,19.60
2023-04-27T18:12:12.958Z,19.60
2023-04-27T18:14:39.830Z,19.50
2023-04-27T18:17:06.611Z,19.40
2023-04-27T18:19:33.521Z,19.40
2023-04-27T18:22:03.289Z,19.30
2023-04-27T18:24:30.129Z,19.30
2023-04-27T18:26:57.872Z,19.30
2023-04-27T18:29:25.881Z,19.10
2023-04-27T18:31:53.516Z,19.10
2023-04-27T18:34:20.479Z,19.00
2023-04-27T18:36:51.857Z,19.00
2023-04-27T18:39:20.373Z,18.90
2023-04-27T18:41:47.221Z,18.90
2023-04-27T18:44:15.337Z,18.90
2023-04-27T18:46:42.588Z,18.70
2023-04-27T18:49:09.369Z,18.70
2023-04-27T18:51:36.153Z,18.70
2023-04-27T18:54:02.977Z,18.60
2023-04-27T18:56:34.155Z,18.50
2023-04-27T18:59:01.140Z,18.60
2023-04-27T19:01:31.495Z,18.50
2023-04-27T19:03:59.124Z,18.30
2023-04-27T19:06:26.462Z,18.30
2023-04-27T19:08:53.383Z,18.20
2023-04-27T19:11:22.306Z,18.20
2023-04-27T19:13:50.579Z,18.10
2023-04-27T19:16:18.054Z,18.10
2023-04-27T19:18:44.894Z,18.10
2023-04-27T19:21:12.895Z,18.00
2023-04-27T19:23:39.850Z,17.90
2023-04-27T19:26:13.355Z,17.80
2023-04-27T19:28:40.710Z,17.80
2023-04-27T19:31:07.683Z,17.70
2023-04-27T19:33:34.527Z,17.70
2023-04-27T19:36:01.483Z,17.70
2023-04-27T19:38:28.432Z,17.60
2023-04-27T19:40:55.355Z,17.70
2023-04-27T19:43:22.179Z,17.60
2023-04-27T19:45:49.418Z,17.60
2023-04-27T19:48:16.604Z,17.60
2023-04-27T19:50:44.086Z,17.60
2023-04-27T19:53:11.222Z,17.60
2023-04-27T19:55:39.127Z,17.30
2023-04-27T19:58:06.895Z,17.30
2023-04-27T20:00:34.212Z,17.20
2023-04-27T20:03:01.333Z,17.20
